Hovedside
METAR-TAF:

METAR-TAF

Lufthavner :

Haugesund lufthavn. Karmøy

Haugesund, Norge

breddegrad: 59-21N, lengdegrad: 005-13E, høyde over havet: 2 m

Gjeldene værobservasjon

Denne rapporten ble laget for 10 minutter siden, klokken 10:50 UTC
Vind 4 kt fra Sør, skiftende mellom Sør-sørøst og Sørvest
Temperatur 4°C
Luftfuktighet 87%
Trykk 1007 hPa
Sikt 10 km eller mer
Få skyer i en høyde av 4500 ft

METAR: ENHD 241050Z 19004KT 160V230 9999 FEW045 04/02 Q1007

Tid: 12:00 (11:00 UTC)

Varsel

Denne rapporten ble laget for 3 timer og 0 minutter siden, klokken 08:00 UTC
Varsel gyldig fra 24. klokken 09 UTC til 24. klokken 18 UTC
Vind 8 kt fra Vest
Sikt 10 km eller mer
Få skyer i en høyde av 1500 ft, Tårnskyer (cumulus).
Spredte skyer i en høyde av 4000 ft
lette regnbyger
Blir
fra 24. klokken 13 UTC til 24. klokken 15 UTC
Vind 10 kt fra Øst-sørøst

TAF: ENHD 240800Z 2409/2418 28008KT 9999 -SHRA FEW015TCU SCT040 BECMG 2413/2415 12010KT

Værobservasjoner og værvarsel for over 4000 flyplasser (METAR- og TAF-rapporter).

Tilgjengelige stasjoner er representert av de røde og gule prikkene på kartet.

Hold musepekeren over prikken for å se navnet på stasjonen.

Klikk så for å se værobservasjoner og -varsler.

For å forandre kartet kan du klikke på den grønne knappen med svart kryss for å zoome inn, på den grønne knappen med strek for å zoome ut, eller på de grønne pilene for å se tilstøtende kart.


METAR-TAF: